sensor_id;sensor_type;location;lat;lon;timestamp;P1;durP1;ratioP1;P2;durP2;ratioP2
13415;SDS011;6779;50.150;8.680;2023-05-27T00:00:17;12.60;;;3.93;;
13415;SDS011;6779;50.150;8.680;2023-05-27T00:02:43;7.17;;;3.20;;
13415;SDS011;6779;50.150;8.680;2023-05-27T00:05:08;14.77;;;4.30;;
13415;SDS011;6779;50.150;8.680;2023-05-27T00:07:33;9.13;;;3.57;;
13415;SDS011;6779;50.150;8.680;2023-05-27T00:09:59;11.97;;;3.37;;
13415;SDS011;6779;50.150;8.680;2023-05-27T00:12:24;10.93;;;3.47;;
13415;SDS011;6779;50.150;8.680;2023-05-27T00:14:49;13.77;;;4.40;;
13415;SDS011;6779;50.150;8.680;2023-05-27T00:17:15;10.47;;;3.50;;
13415;SDS011;6779;50.150;8.680;2023-05-27T00:19:40;11.00;;;3.53;;
13415;SDS011;6779;50.150;8.680;2023-05-27T00:22:07;10.20;;;3.70;;
13415;SDS011;6779;50.150;8.680;2023-05-27T00:24:33;8.07;;;3.57;;
13415;SDS011;6779;50.150;8.680;2023-05-27T00:27:00;10.63;;;3.67;;
13415;SDS011;6779;50.150;8.680;2023-05-27T00:29:26;10.87;;;4.23;;
13415;SDS011;6779;50.150;8.680;2023-05-27T00:31:51;12.17;;;3.93;;
13415;SDS011;6779;50.150;8.680;2023-05-27T00:34:17;12.67;;;3.60;;
13415;SDS011;6779;50.150;8.680;2023-05-27T00:36:42;9.37;;;3.53;;
13415;SDS011;6779;50.150;8.680;2023-05-27T00:39:07;10.10;;;3.43;;
13415;SDS011;6779;50.150;8.680;2023-05-27T00:41:33;10.23;;;3.90;;
13415;SDS011;6779;50.150;8.680;2023-05-27T00:43:58;9.50;;;3.93;;
13415;SDS011;6779;50.150;8.680;2023-05-27T00:46:24;10.00;;;4.33;;
13415;SDS011;6779;50.150;8.680;2023-05-27T00:48:49;7.27;;;4.10;;
13415;SDS011;6779;50.150;8.680;2023-05-27T00:51:14;9.17;;;3.63;;
13415;SDS011;6779;50.150;8.680;2023-05-27T00:53:40;6.97;;;3.33;;
13415;SDS011;6779;50.150;8.680;2023-05-27T00:56:07;8.53;;;3.43;;
13415;SDS011;6779;50.150;8.680;2023-05-27T00:58:34;12.10;;;4.70;;
13415;SDS011;6779;50.150;8.680;2023-05-27T01:01:00;10.97;;;3.97;;
13415;SDS011;6779;50.150;8.680;2023-05-27T01:03:26;9.53;;;4.10;;
13415;SDS011;6779;50.150;8.680;2023-05-27T01:05:53;11.27;;;4.10;;
13415;SDS011;6779;50.150;8.680;2023-05-27T01:08:28;11.43;;;4.50;;
13415;SDS011;6779;50.150;8.680;2023-05-27T01:11:17;11.93;;;3.97;;
13415;SDS011;6779;50.150;8.680;2023-05-27T01:13:48;12.70;;;4.37;;
13415;SDS011;6779;50.150;8.680;2023-05-27T01:16:16;8.30;;;3.47;;
13415;SDS011;6779;50.150;8.680;2023-05-27T01:18:42;9.53;;;4.00;;
13415;SDS011;6779;50.150;8.680;2023-05-27T01:21:13;10.97;;;4.33;;
13415;SDS011;6779;50.150;8.680;2023-05-27T01:23:41;9.70;;;4.47;;
13415;SDS011;6779;50.150;8.680;2023-05-27T01:26:07;9.10;;;3.70;;
13415;SDS011;6779;50.150;8.680;2023-05-27T01:28:32;17.87;;;4.50;;
13415;SDS011;6779;50.150;8.680;2023-05-27T01:31:01;11.40;;;4.77;;
13415;SDS011;6779;50.150;8.680;2023-05-27T01:33:40;10.93;;;4.30;;
13415;SDS011;6779;50.150;8.680;2023-05-27T01:36:10;11.63;;;4.13;;
13415;SDS011;6779;50.150;8.680;2023-05-27T01:38:40;13.73;;;4.70;;
13415;SDS011;6779;50.150;8.680;2023-05-27T01:41:08;10.27;;;4.30;;
13415;SDS011;6779;50.150;8.680;2023-05-27T01:43:34;12.53;;;4.27;;
13415;SDS011;6779;50.150;8.680;2023-05-27T01:46:01;12.33;;;4.83;;
13415;SDS011;6779;50.150;8.680;2023-05-27T01:48:26;10.93;;;4.30;;
13415;SDS011;6779;50.150;8.680;2023-05-27T01:50:51;10.20;;;3.70;;
13415;SDS011;6779;50.150;8.680;2023-05-27T01:53:17;13.37;;;4.40;;
13415;SDS011;6779;50.150;8.680;2023-05-27T01:55:42;12.43;;;4.27;;
13415;SDS011;6779;50.150;8.680;2023-05-27T01:58:07;14.27;;;4.77;;
13415;SDS011;6779;50.150;8.680;2023-05-27T02:00:33;11.97;;;4.83;;
13415;SDS011;6779;50.150;8.680;2023-05-27T02:02:58;10.27;;;4.13;;
13415;SDS011;6779;50.150;8.680;2023-05-27T02:05:23;12.03;;;4.50;;
13415;SDS011;6779;50.150;8.680;2023-05-27T02:07:49;14.43;;;4.80;;
13415;SDS011;6779;50.150;8.680;2023-05-27T02:10:14;14.87;;;4.97;;
13415;SDS011;6779;50.150;8.680;2023-05-27T02:12:40;9.97;;;4.10;;
13415;SDS011;6779;50.150;8.680;2023-05-27T02:15:05;12.47;;;4.43;;
13415;SDS011;6779;50.150;8.680;2023-05-27T02:17:31;13.43;;;4.53;;
13415;SDS011;6779;50.150;8.680;2023-05-27T02:19:56;12.77;;;4.43;;
13415;SDS011;6779;50.150;8.680;2023-05-27T02:22:22;13.20;;;4.40;;
13415;SDS011;6779;50.150;8.680;2023-05-27T02:24:47;12.17;;;4.67;;
13415;SDS011;6779;50.150;8.680;2023-05-27T02:27:12;11.33;;;4.77;;
13415;SDS011;6779;50.150;8.680;2023-05-27T02:29:38;20.70;;;4.60;;
13415;SDS011;6779;50.150;8.680;2023-05-27T02:32:03;11.97;;;4.67;;
13415;SDS011;6779;50.150;8.680;2023-05-27T02:34:28;14.70;;;4.80;;
13415;SDS011;6779;50.150;8.680;2023-05-27T02:36:54;15.50;;;4.90;;
13415;SDS011;6779;50.150;8.680;2023-05-27T02:39:20;10.50;;;4.93;;
13415;SDS011;6779;50.150;8.680;2023-05-27T02:41:45;12.13;;;4.30;;
13415;SDS011;6779;50.150;8.680;2023-05-27T02:44:11;13.77;;;4.73;;
13415;SDS011;6779;50.150;8.680;2023-05-27T02:46:36;11.63;;;4.50;;
13415;SDS011;6779;50.150;8.680;2023-05-27T02:49:02;15.87;;;5.50;;
13415;SDS011;6779;50.150;8.680;2023-05-27T02:51:27;10.93;;;5.03;;
13415;SDS011;6779;50.150;8.680;2023-05-27T02:53:53;12.23;;;4.87;;
13415;SDS011;6779;50.150;8.680;2023-05-27T02:56:18;11.40;;;5.20;;
13415;SDS011;6779;50.150;8.680;2023-05-27T02:58:44;14.07;;;6.53;;
13415;SDS011;6779;50.150;8.680;2023-05-27T03:01:09;15.03;;;4.97;;
13415;SDS011;6779;50.150;8.680;2023-05-27T03:03:34;14.27;;;5.53;;
13415;SDS011;6779;50.150;8.680;2023-05-27T03:06:00;15.03;;;5.00;;
13415;SDS011;6779;50.150;8.680;2023-05-27T03:08:25;9.70;;;4.83;;
13415;SDS011;6779;50.150;8.680;2023-05-27T03:10:50;13.40;;;6.27;;
13415;SDS011;6779;50.150;8.680;2023-05-27T03:13:16;11.43;;;5.10;;
13415;SDS011;6779;50.150;8.680;2023-05-27T03:15:41;15.90;;;5.47;;
13415;SDS011;6779;50.150;8.680;2023-05-27T03:18:06;17.37;;;5.77;;
13415;SDS011;6779;50.150;8.680;2023-05-27T03:20:32;13.57;;;5.30;;
13415;SDS011;6779;50.150;8.680;2023-05-27T03:22:57;11.97;;;4.90;;
13415;SDS011;6779;50.150;8.680;2023-05-27T03:25:22;14.57;;;5.47;;
13415;SDS011;6779;50.150;8.680;2023-05-27T03:27:48;15.07;;;4.93;;
13415;SDS011;6779;50.150;8.680;2023-05-27T03:30:13;11.50;;;5.33;;
13415;SDS011;6779;50.150;8.680;2023-05-27T03:32:38;14.57;;;5.83;;
13415;SDS011;6779;50.150;8.680;2023-05-27T03:35:04;10.93;;;4.97;;
13415;SDS011;6779;50.150;8.680;2023-05-27T03:37:29;14.73;;;5.00;;
13415;SDS011;6779;50.150;8.680;2023-05-27T03:39:55;13.60;;;5.57;;
13415;SDS011;6779;50.150;8.680;2023-05-27T03:42:20;11.63;;;4.63;;
13415;SDS011;6779;50.150;8.680;2023-05-27T03:44:45;14.33;;;6.37;;
13415;SDS011;6779;50.150;8.680;2023-05-27T03:47:11;14.57;;;5.57;;
13415;SDS011;6779;50.150;8.680;2023-05-27T03:49:36;13.63;;;5.50;;
13415;SDS011;6779;50.150;8.680;2023-05-27T03:52:01;12.87;;;5.17;;
13415;SDS011;6779;50.150;8.680;2023-05-27T03:54:27;11.10;;;5.60;;
13415;SDS011;6779;50.150;8.680;2023-05-27T03:56:52;14.50;;;5.57;;
13415;SDS011;6779;50.150;8.680;2023-05-27T03:59:17;12.37;;;5.03;;
13415;SDS011;6779;50.150;8.680;2023-05-27T04:01:43;13.03;;;5.23;;
13415;SDS011;6779;50.150;8.680;2023-05-27T04:04:09;12.23;;;5.63;;
13415;SDS011;6779;50.150;8.680;2023-05-27T04:06:34;13.17;;;5.40;;
13415;SDS011;6779;50.150;8.680;2023-05-27T04:08:59;12.13;;;5.37;;
13415;SDS011;6779;50.150;8.680;2023-05-27T04:11:26;17.53;;;5.87;;
13415;SDS011;6779;50.150;8.680;2023-05-27T04:13:51;12.60;;;5.27;;
13415;SDS011;6779;50.150;8.680;2023-05-27T04:16:17;13.90;;;5.53;;
13415;SDS011;6779;50.150;8.680;2023-05-27T04:18:42;12.50;;;5.80;;
13415;SDS011;6779;50.150;8.680;2023-05-27T04:21:14;10.77;;;5.07;;
13415;SDS011;6779;50.150;8.680;2023-05-27T04:23:40;13.33;;;5.30;;
13415;SDS011;6779;50.150;8.680;2023-05-27T04:26:05;10.83;;;5.90;;
13415;SDS011;6779;50.150;8.680;2023-05-27T04:28:30;15.80;;;6.33;;
13415;SDS011;6779;50.150;8.680;2023-05-27T04:30:56;15.07;;;5.93;;
13415;SDS011;6779;50.150;8.680;2023-05-27T04:33:21;10.63;;;5.50;;
13415;SDS011;6779;50.150;8.680;2023-05-27T04:35:46;9.77;;;4.37;;
13415;SDS011;6779;50.150;8.680;2023-05-27T04:38:12;13.67;;;5.63;;
13415;SDS011;6779;50.150;8.680;2023-05-27T04:40:45;14.10;;;6.33;;
13415;SDS011;6779;50.150;8.680;2023-05-27T04:43:11;14.33;;;5.00;;
13415;SDS011;6779;50.150;8.680;2023-05-27T04:45:39;20.03;;;6.60;;
13415;SDS011;6779;50.150;8.680;2023-05-27T04:48:04;13.60;;;5.87;;
13415;SDS011;6779;50.150;8.680;2023-05-27T04:50:30;13.20;;;6.03;;
13415;SDS011;6779;50.150;8.680;2023-05-27T04:52:56;15.10;;;5.80;;
13415;SDS011;6779;50.150;8.680;2023-05-27T04:55:21;15.13;;;5.90;;
13415;SDS011;6779;50.150;8.680;2023-05-27T04:57:47;16.23;;;5.37;;
13415;SDS011;6779;50.150;8.680;2023-05-27T05:00:13;14.00;;;5.50;;
13415;SDS011;6779;50.150;8.680;2023-05-27T05:02:47;15.47;;;5.53;;
13415;SDS011;6779;50.150;8.680;2023-05-27T05:05:13;15.27;;;5.50;;
13415;SDS011;6779;50.150;8.680;2023-05-27T05:07:39;14.67;;;5.50;;
13415;SDS011;6779;50.150;8.680;2023-05-27T05:10:06;12.33;;;5.77;;
13415;SDS011;6779;50.150;8.680;2023-05-27T05:12:32;14.40;;;5.33;;
13415;SDS011;6779;50.150;8.680;2023-05-27T05:14:58;13.30;;;5.33;;
13415;SDS011;6779;50.150;8.680;2023-05-27T05:17:23;13.70;;;6.10;;
13415;SDS011;6779;50.150;8.680;2023-05-27T05:19:49;10.33;;;5.20;;
13415;SDS011;6779;50.150;8.680;2023-05-27T05:22:16;12.80;;;5.47;;
13415;SDS011;6779;50.150;8.680;2023-05-27T05:24:46;14.43;;;6.10;;
13415;SDS011;6779;50.150;8.680;2023-05-27T05:27:11;13.60;;;5.40;;
13415;SDS011;6779;50.150;8.680;2023-05-27T05:29:37;10.73;;;5.13;;
13415;SDS011;6779;50.150;8.680;2023-05-27T05:32:03;16.00;;;5.97;;
13415;SDS011;6779;50.150;8.680;2023-05-27T05:34:28;15.07;;;5.57;;
13415;SDS011;6779;50.150;8.680;2023-05-27T05:36:54;13.20;;;5.00;;
13415;SDS011;6779;50.150;8.680;2023-05-27T05:39:19;12.73;;;4.90;;
13415;SDS011;6779;50.150;8.680;2023-05-27T05:41:47;12.30;;;5.90;;
13415;SDS011;6779;50.150;8.680;2023-05-27T05:44:12;15.37;;;5.70;;
13415;SDS011;6779;50.150;8.680;2023-05-27T05:46:38;17.83;;;5.40;;
13415;SDS011;6779;50.150;8.680;2023-05-27T05:49:03;11.43;;;5.03;;
13415;SDS011;6779;50.150;8.680;2023-05-27T05:51:29;16.40;;;5.53;;
13415;SDS011;6779;50.150;8.680;2023-05-27T05:53:55;14.63;;;5.77;;
13415;SDS011;6779;50.150;8.680;2023-05-27T05:56:21;10.73;;;5.00;;
13415;SDS011;6779;50.150;8.680;2023-05-27T05:58:46;9.93;;;4.80;;
13415;SDS011;6779;50.150;8.680;2023-05-27T06:01:12;15.93;;;6.47;;
13415;SDS011;6779;50.150;8.680;2023-05-27T06:03:37;16.67;;;5.97;;
13415;SDS011;6779;50.150;8.680;2023-05-27T06:06:02;14.37;;;5.40;;
13415;SDS011;6779;50.150;8.680;2023-05-27T06:08:28;10.40;;;5.70;;
13415;SDS011;6779;50.150;8.680;2023-05-27T06:10:53;12.80;;;5.03;;
13415;SDS011;6779;50.150;8.680;2023-05-27T06:13:18;12.17;;;5.57;;
13415;SDS011;6779;50.150;8.680;2023-05-27T06:15:44;12.40;;;5.97;;
13415;SDS011;6779;50.150;8.680;2023-05-27T06:18:09;12.70;;;4.80;;
13415;SDS011;6779;50.150;8.680;2023-05-27T06:20:35;14.27;;;5.20;;
13415;SDS011;6779;50.150;8.680;2023-05-27T06:23:00;14.77;;;5.47;;
13415;SDS011;6779;50.150;8.680;2023-05-27T06:25:26;12.90;;;5.63;;
13415;SDS011;6779;50.150;8.680;2023-05-27T06:27:51;15.13;;;5.37;;
13415;SDS011;6779;50.150;8.680;2023-05-27T06:30:16;10.70;;;5.40;;
13415;SDS011;6779;50.150;8.680;2023-05-27T06:32:42;14.60;;;5.87;;
13415;SDS011;6779;50.150;8.680;2023-05-27T06:35:07;12.80;;;5.30;;
13415;SDS011;6779;50.150;8.680;2023-05-27T06:37:32;13.23;;;4.97;;
13415;SDS011;6779;50.150;8.680;2023-05-27T06:39:58;13.50;;;6.03;;
13415;SDS011;6779;50.150;8.680;2023-05-27T06:42:23;12.67;;;5.00;;
13415;SDS011;6779;50.150;8.680;2023-05-27T06:44:48;15.63;;;5.57;;
13415;SDS011;6779;50.150;8.680;2023-05-27T06:47:14;11.47;;;5.20;;
13415;SDS011;6779;50.150;8.680;2023-05-27T06:49:39;12.13;;;5.70;;
13415;SDS011;6779;50.150;8.680;2023-05-27T06:52:04;10.37;;;5.50;;
13415;SDS011;6779;50.150;8.680;2023-05-27T06:54:30;15.90;;;5.83;;
13415;SDS011;6779;50.150;8.680;2023-05-27T06:56:55;12.93;;;5.10;;
13415;SDS011;6779;50.150;8.680;2023-05-27T06:59:21;12.33;;;4.70;;
13415;SDS011;6779;50.150;8.680;2023-05-27T07:01:46;10.97;;;4.67;;
13415;SDS011;6779;50.150;8.680;2023-05-27T07:04:11;11.70;;;5.17;;
13415;SDS011;6779;50.150;8.680;2023-05-27T07:06:37;13.13;;;4.93;;
13415;SDS011;6779;50.150;8.680;2023-05-27T07:09:02;13.13;;;6.13;;
13415;SDS011;6779;50.150;8.680;2023-05-27T07:11:28;12.43;;;5.03;;
13415;SDS011;6779;50.150;8.680;2023-05-27T07:13:53;11.57;;;4.90;;
13415;SDS011;6779;50.150;8.680;2023-05-27T07:16:18;17.47;;;5.53;;
13415;SDS011;6779;50.150;8.680;2023-05-27T07:18:44;12.80;;;5.60;;
13415;SDS011;6779;50.150;8.680;2023-05-27T07:21:09;13.20;;;4.80;;
13415;SDS011;6779;50.150;8.680;2023-05-27T07:23:35;14.53;;;4.93;;
13415;SDS011;6779;50.150;8.680;2023-05-27T07:26:00;12.07;;;4.73;;
13415;SDS011;6779;50.150;8.680;2023-05-27T07:28:25;11.47;;;4.87;;
13415;SDS011;6779;50.150;8.680;2023-05-27T07:30:51;13.57;;;5.20;;
13415;SDS011;6779;50.150;8.680;2023-05-27T07:33:16;13.10;;;5.20;;
13415;SDS011;6779;50.150;8.680;2023-05-27T07:35:42;12.70;;;4.67;;
13415;SDS011;6779;50.150;8.680;2023-05-27T07:38:07;16.07;;;5.00;;
13415;SDS011;6779;50.150;8.680;2023-05-27T07:40:32;16.50;;;5.70;;
13415;SDS011;6779;50.150;8.680;2023-05-27T07:42:58;15.63;;;6.03;;
13415;SDS011;6779;50.150;8.680;2023-05-27T07:45:23;12.13;;;4.80;;
13415;SDS011;6779;50.150;8.680;2023-05-27T07:47:48;15.00;;;5.13;;
13415;SDS011;6779;50.150;8.680;2023-05-27T07:50:14;15.27;;;5.30;;
13415;SDS011;6779;50.150;8.680;2023-05-27T07:52:40;13.27;;;5.07;;
13415;SDS011;6779;50.150;8.680;2023-05-27T07:55:06;13.50;;;4.90;;
13415;SDS011;6779;50.150;8.680;2023-05-27T07:57:31;9.90;;;5.03;;
13415;SDS011;6779;50.150;8.680;2023-05-27T07:59:56;9.37;;;4.80;;
13415;SDS011;6779;50.150;8.680;2023-05-27T08:02:22;13.77;;;4.90;;
13415;SDS011;6779;50.150;8.680;2023-05-27T08:04:47;10.93;;;4.20;;
13415;SDS011;6779;50.150;8.680;2023-05-27T08:07:13;13.57;;;4.67;;
13415;SDS011;6779;50.150;8.680;2023-05-27T08:09:38;8.97;;;5.07;;
13415;SDS011;6779;50.150;8.680;2023-05-27T08:12:04;9.80;;;4.90;;
13415;SDS011;6779;50.150;8.680;2023-05-27T08:14:31;13.63;;;4.63;;
13415;SDS011;6779;50.150;8.680;2023-05-27T08:16:56;13.53;;;5.47;;
13415;SDS011;6779;50.150;8.680;2023-05-27T08:19:22;12.10;;;4.40;;
13415;SDS011;6779;50.150;8.680;2023-05-27T08:21:47;9.83;;;4.80;;
13415;SDS011;6779;50.150;8.680;2023-05-27T08:24:13;13.60;;;5.10;;
13415;SDS011;6779;50.150;8.680;2023-05-27T08:26:39;8.07;;;4.20;;
13415;SDS011;6779;50.150;8.680;2023-05-27T08:29:04;12.37;;;4.87;;
13415;SDS011;6779;50.150;8.680;2023-05-27T08:31:30;14.43;;;5.17;;
13415;SDS011;6779;50.150;8.680;2023-05-27T08:33:55;14.80;;;4.90;;
13415;SDS011;6779;50.150;8.680;2023-05-27T08:36:21;11.20;;;4.23;;
13415;SDS011;6779;50.150;8.680;2023-05-27T08:38:47;10.07;;;4.40;;
13415;SDS011;6779;50.150;8.680;2023-05-27T08:41:12;15.10;;;4.30;;
13415;SDS011;6779;50.150;8.680;2023-05-27T08:43:38;10.77;;;4.20;;
13415;SDS011;6779;50.150;8.680;2023-05-27T08:46:03;14.40;;;4.90;;
13415;SDS011;6779;50.150;8.680;2023-05-27T08:48:29;10.27;;;4.07;;
13415;SDS011;6779;50.150;8.680;2023-05-27T08:50:55;11.30;;;4.40;;
13415;SDS011;6779;50.150;8.680;2023-05-27T08:53:20;7.63;;;4.37;;
13415;SDS011;6779;50.150;8.680;2023-05-27T08:55:47;14.73;;;4.40;;
13415;SDS011;6779;50.150;8.680;2023-05-27T08:58:15;10.43;;;4.03;;
13415;SDS011;6779;50.150;8.680;2023-05-27T09:00:40;9.47;;;4.40;;
13415;SDS011;6779;50.150;8.680;2023-05-27T09:03:07;8.27;;;4.37;;
13415;SDS011;6779;50.150;8.680;2023-05-27T09:05:32;10.40;;;4.03;;
13415;SDS011;6779;50.150;8.680;2023-05-27T09:07:58;13.73;;;4.37;;
13415;SDS011;6779;50.150;8.680;2023-05-27T09:10:23;12.57;;;5.30;;
13415;SDS011;6779;50.150;8.680;2023-05-27T09:12:49;13.17;;;5.03;;
13415;SDS011;6779;50.150;8.680;2023-05-27T09:15:15;9.37;;;3.97;;
13415;SDS011;6779;50.150;8.680;2023-05-27T09:17:41;8.47;;;4.17;;
13415;SDS011;6779;50.150;8.680;2023-05-27T09:20:07;10.97;;;4.57;;
13415;SDS011;6779;50.150;8.680;2023-05-27T09:22:33;7.63;;;3.97;;
13415;SDS011;6779;50.150;8.680;2023-05-27T09:24:59;8.35;;;4.10;;
13415;SDS011;6779;50.150;8.680;2023-05-27T09:27:28;11.10;;;4.45;;
13415;SDS011;6779;50.150;8.680;2023-05-27T09:29:55;10.82;;;4.63;;
13415;SDS011;6779;50.150;8.680;2023-05-27T09:32:27;7.63;;;4.07;;
13415;SDS011;6779;50.150;8.680;2023-05-27T09:34:53;8.93;;;4.28;;
13415;SDS011;6779;50.150;8.680;2023-05-27T09:37:19;6.97;;;3.70;;
13415;SDS011;6779;50.150;8.680;2023-05-27T09:39:45;8.85;;;4.60;;
13415;SDS011;6779;50.150;8.680;2023-05-27T09:42:11;8.25;;;3.78;;
13415;SDS011;6779;50.150;8.680;2023-05-27T09:44:36;8.52;;;3.95;;
13415;SDS011;6779;50.150;8.680;2023-05-27T09:47:08;67.45;;;8.25;;
13415;SDS011;6779;50.150;8.680;2023-05-27T09:49:34;7.53;;;4.20;;
13415;SDS011;6779;50.150;8.680;2023-05-27T09:52:02;12.20;;;4.82;;
13415;SDS011;6779;50.150;8.680;2023-05-27T09:54:28;11.05;;;3.75;;
13415;SDS011;6779;50.150;8.680;2023-05-27T09:56:54;8.60;;;4.72;;
13415;SDS011;6779;50.150;8.680;2023-05-27T09:59:21;7.63;;;3.97;;
13415;SDS011;6779;50.150;8.680;2023-05-27T10:01:47;10.38;;;4.45;;
13415;SDS011;6779;50.150;8.680;2023-05-27T10:04:14;6.20;;;3.55;;
13415;SDS011;6779;50.150;8.680;2023-05-27T10:06:40;10.65;;;4.10;;
13415;SDS011;6779;50.150;8.680;2023-05-27T10:09:06;9.43;;;4.18;;
13415;SDS011;6779;50.150;8.680;2023-05-27T10:11:32;7.70;;;4.15;;
13415;SDS011;6779;50.150;8.680;2023-05-27T10:14:00;7.30;;;3.97;;
13415;SDS011;6779;50.150;8.680;2023-05-27T10:16:26;8.52;;;4.35;;
13415;SDS011;6779;50.150;8.680;2023-05-27T10:18:56;8.90;;;4.00;;
13415;SDS011;6779;50.150;8.680;2023-05-27T10:21:23;8.25;;;3.97;;
13415;SDS011;6779;50.150;8.680;2023-05-27T10:23:57;7.63;;;4.35;;
13415;SDS011;6779;50.150;8.680;2023-05-27T10:26:33;9.13;;;3.75;;
13415;SDS011;6779;50.150;8.680;2023-05-27T10:29:07;9.23;;;4.35;;
13415;SDS011;6779;50.150;8.680;2023-05-27T10:31:33;8.25;;;4.68;;
13415;SDS011;6779;50.150;8.680;2023-05-27T10:33:58;9.18;;;4.35;;
13415;SDS011;6779;50.150;8.680;2023-05-27T10:36:27;9.68;;;4.28;;
13415;SDS011;6779;50.150;8.680;2023-05-27T10:39:02;6.40;;;3.75;;
13415;SDS011;6779;50.150;8.680;2023-05-27T10:41:28;8.57;;;4.03;;
13415;SDS011;6779;50.150;8.680;2023-05-27T10:43:59;9.10;;;3.67;;
13415;SDS011;6779;50.150;8.680;2023-05-27T10:46:25;7.65;;;3.88;;
13415;SDS011;6779;50.150;8.680;2023-05-27T10:48:51;9.63;;;4.43;;
13415;SDS011;6779;50.150;8.680;2023-05-27T10:51:16;7.75;;;3.63;;
13415;SDS011;6779;50.150;8.680;2023-05-27T10:53:41;11.25;;;4.43;;
13415;SDS011;6779;50.150;8.680;2023-05-27T10:56:07;6.88;;;3.85;;
13415;SDS011;6779;50.150;8.680;2023-05-27T10:58:34;8.35;;;3.90;;
13415;SDS011;6779;50.150;8.680;2023-05-27T11:01:01;7.43;;;3.88;;
13415;SDS011;6779;50.150;8.680;2023-05-27T11:03:32;7.55;;;3.75;;
13415;SDS011;6779;50.150;8.680;2023-05-27T11:08:27;6.90;;;3.88;;
13415;SDS011;6779;50.150;8.680;2023-05-27T11:11:03;8.18;;;4.38;;
13415;SDS011;6779;50.150;8.680;2023-05-27T11:13:31;8.80;;;4.47;;
13415;SDS011;6779;50.150;8.680;2023-05-27T11:15:58;7.20;;;4.25;;
13415;SDS011;6779;50.150;8.680;2023-05-27T11:18:23;7.60;;;4.45;;
13415;SDS011;6779;50.150;8.680;2023-05-27T11:20:49;14.98;;;4.88;;
13415;SDS011;6779;50.150;8.680;2023-05-27T11:23:14;7.30;;;4.45;;
13415;SDS011;6779;50.150;8.680;2023-05-27T11:25:41;9.70;;;4.38;;
13415;SDS011;6779;50.150;8.680;2023-05-27T11:28:14;7.60;;;4.30;;
13415;SDS011;6779;50.150;8.680;2023-05-27T11:30:41;8.38;;;4.05;;
13415;SDS011;6779;50.150;8.680;2023-05-27T11:33:06;10.27;;;4.03;;
13415;SDS011;6779;50.150;8.680;2023-05-27T11:35:31;9.02;;;5.57;;
13415;SDS011;6779;50.150;8.680;2023-05-27T11:37:58;8.63;;;4.30;;
13415;SDS011;6779;50.150;8.680;2023-05-27T11:40:23;7.82;;;4.15;;
13415;SDS011;6779;50.150;8.680;2023-05-27T11:42:48;8.75;;;4.13;;
13415;SDS011;6779;50.150;8.680;2023-05-27T11:45:14;9.82;;;4.30;;
13415;SDS011;6779;50.150;8.680;2023-05-27T11:47:43;7.85;;;4.43;;
13415;SDS011;6779;50.150;8.680;2023-05-27T11:50:09;11.35;;;4.53;;
13415;SDS011;6779;50.150;8.680;2023-05-27T11:52:35;9.35;;;4.07;;
13415;SDS011;6779;50.150;8.680;2023-05-27T11:55:14;11.70;;;4.22;;
13415;SDS011;6779;50.150;8.680;2023-05-27T11:57:40;9.30;;;4.07;;
13415;SDS011;6779;50.150;8.680;2023-05-27T12:00:05;7.57;;;4.15;;
13415;SDS011;6779;50.150;8.680;2023-05-27T12:02:32;7.45;;;3.70;;
13415;SDS011;6779;50.150;8.680;2023-05-27T12:04:58;8.80;;;3.92;;
13415;SDS011;6779;50.150;8.680;2023-05-27T12:07:23;8.27;;;4.03;;
13415;SDS011;6779;50.150;8.680;2023-05-27T12:09:48;7.70;;;4.03;;
13415;SDS011;6779;50.150;8.680;2023-05-27T12:12:14;10.65;;;4.03;;
13415;SDS011;6779;50.150;8.680;2023-05-27T12:14:39;8.07;;;3.70;;
13415;SDS011;6779;50.150;8.680;2023-05-27T12:17:04;6.70;;;3.65;;
13415;SDS011;6779;50.150;8.680;2023-05-27T12:19:30;7.30;;;4.05;;
13415;SDS011;6779;50.150;8.680;2023-05-27T12:21:59;8.93;;;4.20;;
13415;SDS011;6779;50.150;8.680;2023-05-27T12:24:24;6.93;;;3.58;;
13415;SDS011;6779;50.150;8.680;2023-05-27T12:26:49;9.85;;;3.85;;
13415;SDS011;6779;50.150;8.680;2023-05-27T12:29:15;8.18;;;4.18;;
13415;SDS011;6779;50.150;8.680;2023-05-27T12:31:40;9.63;;;4.47;;
13415;SDS011;6779;50.150;8.680;2023-05-27T12:34:05;5.95;;;3.75;;
13415;SDS011;6779;50.150;8.680;2023-05-27T12:36:31;7.85;;;3.78;;
13415;SDS011;6779;50.150;8.680;2023-05-27T12:38:57;10.23;;;4.38;;
13415;SDS011;6779;50.150;8.680;2023-05-27T12:41:22;8.32;;;4.07;;
13415;SDS011;6779;50.150;8.680;2023-05-27T12:43:47;7.97;;;3.72;;
13415;SDS011;6779;50.150;8.680;2023-05-27T12:46:13;9.60;;;4.22;;
13415;SDS011;6779;50.150;8.680;2023-05-27T12:48:38;8.73;;;4.55;;
13415;SDS011;6779;50.150;8.680;2023-05-27T12:51:03;8.52;;;4.40;;
13415;SDS011;6779;50.150;8.680;2023-05-27T12:53:29;11.60;;;3.97;;
13415;SDS011;6779;50.150;8.680;2023-05-27T12:55:54;7.85;;;4.40;;
13415;SDS011;6779;50.150;8.680;2023-05-27T12:58:20;10.05;;;4.35;;
13415;SDS011;6779;50.150;8.680;2023-05-27T13:00:45;7.00;;;3.65;;
13415;SDS011;6779;50.150;8.680;2023-05-27T13:03:10;7.22;;;3.95;;
13415;SDS011;6779;50.150;8.680;2023-05-27T13:05:36;8.63;;;4.22;;
13415;SDS011;6779;50.150;8.680;2023-05-27T13:08:02;8.75;;;4.10;;
13415;SDS011;6779;50.150;8.680;2023-05-27T13:10:29;7.10;;;4.40;;
13415;SDS011;6779;50.150;8.680;2023-05-27T13:12:55;7.53;;;3.90;;
13415;SDS011;6779;50.150;8.680;2023-05-27T13:15:21;8.50;;;4.07;;
13415;SDS011;6779;50.150;8.680;2023-05-27T13:17:48;9.10;;;3.75;;
13415;SDS011;6779;50.150;8.680;2023-05-27T13:20:14;6.07;;;4.10;;
13415;SDS011;6779;50.150;8.680;2023-05-27T13:22:40;8.60;;;3.97;;
13415;SDS011;6779;50.150;8.680;2023-05-27T13:25:06;7.68;;;4.38;;
13415;SDS011;6779;50.150;8.680;2023-05-27T13:27:32;6.22;;;3.60;;
13415;SDS011;6779;50.150;8.680;2023-05-27T13:29:58;9.85;;;4.13;;
13415;SDS011;6779;50.150;8.680;2023-05-27T13:32:23;8.15;;;3.85;;
13415;SDS011;6779;50.150;8.680;2023-05-27T13:34:49;8.25;;;4.15;;
13415;SDS011;6779;50.150;8.680;2023-05-27T13:37:16;8.23;;;4.25;;
13415;SDS011;6779;50.150;8.680;2023-05-27T13:39:41;8.30;;;4.10;;
13415;SDS011;6779;50.150;8.680;2023-05-27T13:42:08;8.20;;;3.75;;
13415;SDS011;6779;50.150;8.680;2023-05-27T13:44:35;6.10;;;3.60;;
13415;SDS011;6779;50.150;8.680;2023-05-27T13:47:00;7.78;;;3.78;;
13415;SDS011;6779;50.150;8.680;2023-05-27T13:49:25;9.75;;;4.18;;
13415;SDS011;6779;50.150;8.680;2023-05-27T13:51:50;6.03;;;3.28;;
13415;SDS011;6779;50.150;8.680;2023-05-27T13:54:16;6.30;;;3.70;;
13415;SDS011;6779;50.150;8.680;2023-05-27T13:56:41;6.53;;;3.47;;
13415;SDS011;6779;50.150;8.680;2023-05-27T13:59:06;5.93;;;3.45;;
13415;SDS011;6779;50.150;8.680;2023-05-27T14:01:34;6.90;;;3.70;;
13415;SDS011;6779;50.150;8.680;2023-05-27T14:03:59;7.60;;;3.72;;
13415;SDS011;6779;50.150;8.680;2023-05-27T14:06:25;6.35;;;4.05;;
13415;SDS011;6779;50.150;8.680;2023-05-27T14:08:50;7.25;;;3.60;;
13415;SDS011;6779;50.150;8.680;2023-05-27T14:11:17;7.63;;;3.70;;
13415;SDS011;6779;50.150;8.680;2023-05-27T14:13:42;8.05;;;4.40;;
13415;SDS011;6779;50.150;8.680;2023-05-27T14:16:07;8.00;;;4.25;;
13415;SDS011;6779;50.150;8.680;2023-05-27T14:18:33;7.15;;;4.03;;
13415;SDS011;6779;50.150;8.680;2023-05-27T14:20:59;10.38;;;4.45;;
13415;SDS011;6779;50.150;8.680;2023-05-27T14:23:24;6.00;;;3.92;;
13415;SDS011;6779;50.150;8.680;2023-05-27T14:25:50;6.50;;;3.63;;
13415;SDS011;6779;50.150;8.680;2023-05-27T14:28:15;8.40;;;3.58;;
13415;SDS011;6779;50.150;8.680;2023-05-27T14:30:40;8.05;;;3.60;;
13415;SDS011;6779;50.150;8.680;2023-05-27T14:33:06;11.03;;;4.37;;
13415;SDS011;6779;50.150;8.680;2023-05-27T14:35:34;8.57;;;4.18;;
13415;SDS011;6779;50.150;8.680;2023-05-27T14:38:00;6.97;;;4.70;;
13415;SDS011;6779;50.150;8.680;2023-05-27T14:40:25;10.05;;;3.92;;
13415;SDS011;6779;50.150;8.680;2023-05-27T14:42:51;7.55;;;3.85;;
13415;SDS011;6779;50.150;8.680;2023-05-27T14:45:17;6.32;;;3.42;;
13415;SDS011;6779;50.150;8.680;2023-05-27T14:47:45;7.38;;;3.80;;